sensor_id;sensor_type;location;lat;lon;timestamp;temperature;humidity
8067;DHT22;4076;48.076;9.118;2023-03-01T00:02:11;-2.20;99.90
8067;DHT22;4076;48.076;9.118;2023-03-01T00:04:37;-2.10;99.90
8067;DHT22;4076;48.076;9.118;2023-03-01T00:07:02;-2.10;99.90
8067;DHT22;4076;48.076;9.118;2023-03-01T00:09:28;-2.00;99.90
8067;DHT22;4076;48.076;9.118;2023-03-01T00:11:53;-2.00;99.90
8067;DHT22;4076;48.076;9.118;2023-03-01T00:14:19;-1.90;99.90
8067;DHT22;4076;48.076;9.118;2023-03-01T00:16:45;-1.90;99.90
8067;DHT22;4076;48.076;9.118;2023-03-01T00:19:14;-1.90;99.90
8067;DHT22;4076;48.076;9.118;2023-03-01T00:21:40;-1.80;99.90
8067;DHT22;4076;48.076;9.118;2023-03-01T00:24:06;-1.80;99.90
8067;DHT22;4076;48.076;9.118;2023-03-01T00:26:32;-1.80;99.90
8067;DHT22;4076;48.076;9.118;2023-03-01T00:28:58;-1.70;99.90
8067;DHT22;4076;48.076;9.118;2023-03-01T00:31:27;-1.70;99.90
8067;DHT22;4076;48.076;9.118;2023-03-01T00:33:53;-1.60;99.90
8067;DHT22;4076;48.076;9.118;2023-03-01T00:36:23;-1.60;99.90
8067;DHT22;4076;48.076;9.118;2023-03-01T00:38:48;-1.60;99.90
8067;DHT22;4076;48.076;9.118;2023-03-01T00:41:16;-1.60;99.90
8067;DHT22;4076;48.076;9.118;2023-03-01T00:43:44;-1.50;99.90
8067;DHT22;4076;48.076;9.118;2023-03-01T00:46:14;-1.50;99.90
8067;DHT22;4076;48.076;9.118;2023-03-01T00:48:40;-1.50;99.90
8067;DHT22;4076;48.076;9.118;2023-03-01T00:51:11;-1.40;99.90
8067;DHT22;4076;48.076;9.118;2023-03-01T00:53:37;-1.30;99.90
8067;DHT22;4076;48.076;9.118;2023-03-01T00:56:04;-1.20;99.90
8067;DHT22;4076;48.076;9.118;2023-03-01T00:58:30;-1.20;99.90
8067;DHT22;4076;48.076;9.118;2023-03-01T01:00:56;-1.10;99.90
8067;DHT22;4076;48.076;9.118;2023-03-01T01:03:22;-1.10;99.90
8067;DHT22;4076;48.076;9.118;2023-03-01T01:05:51;-1.00;99.90
8067;DHT22;4076;48.076;9.118;2023-03-01T01:08:17;-1.00;99.90
8067;DHT22;4076;48.076;9.118;2023-03-01T01:10:44;-0.90;99.90
8067;DHT22;4076;48.076;9.118;2023-03-01T01:13:10;-0.90;99.90
8067;DHT22;4076;48.076;9.118;2023-03-01T01:15:36;-0.90;99.90
8067;DHT22;4076;48.076;9.118;2023-03-01T01:18:02;-0.80;99.90
8067;DHT22;4076;48.076;9.118;2023-03-01T01:20:28;-0.80;99.90
8067;DHT22;4076;48.076;9.118;2023-03-01T01:22:54;-0.80;99.90
8067;DHT22;4076;48.076;9.118;2023-03-01T01:25:19;-0.70;99.90
8067;DHT22;4076;48.076;9.118;2023-03-01T01:27:45;-0.70;99.90
8067;DHT22;4076;48.076;9.118;2023-03-01T01:30:11;-0.70;99.90
8067;DHT22;4076;48.076;9.118;2023-03-01T01:32:37;-0.70;99.90
8067;DHT22;4076;48.076;9.118;2023-03-01T01:35:02;-0.70;99.90
8067;DHT22;4076;48.076;9.118;2023-03-01T01:37:28;-0.60;99.90
8067;DHT22;4076;48.076;9.118;2023-03-01T01:39:57;-0.60;99.90
8067;DHT22;4076;48.076;9.118;2023-03-01T01:42:23;-0.60;99.90
8067;DHT22;4076;48.076;9.118;2023-03-01T01:47:50;-0.50;99.90
8067;DHT22;4076;48.076;9.118;2023-03-01T01:50:18;-0.50;99.90
8067;DHT22;4076;48.076;9.118;2023-03-01T01:52:44;-0.50;99.90
8067;DHT22;4076;48.076;9.118;2023-03-01T01:55:15;-0.50;99.90
8067;DHT22;4076;48.076;9.118;2023-03-01T01:57:50;-0.50;99.90
8067;DHT22;4076;48.076;9.118;2023-03-01T02:00:22;-0.50;99.90
8067;DHT22;4076;48.076;9.118;2023-03-01T02:02:51;-0.50;99.90
8067;DHT22;4076;48.076;9.118;2023-03-01T02:08:03;-0.50;99.90
8067;DHT22;4076;48.076;9.118;2023-03-01T02:10:29;-0.50;99.90
8067;DHT22;4076;48.076;9.118;2023-03-01T02:12:58;-0.40;99.90
8067;DHT22;4076;48.076;9.118;2023-03-01T02:15:25;-0.40;99.90
8067;DHT22;4076;48.076;9.118;2023-03-01T02:17:52;-0.50;99.90
8067;DHT22;4076;48.076;9.118;2023-03-01T02:23:10;-0.50;99.90
8067;DHT22;4076;48.076;9.118;2023-03-01T02:28:37;-0.50;99.90
8067;DHT22;4076;48.076;9.118;2023-03-01T02:31:05;-0.40;99.90
8067;DHT22;4076;48.076;9.118;2023-03-01T02:33:51;-0.40;99.90
8067;DHT22;4076;48.076;9.118;2023-03-01T02:36:24;-0.40;99.90
8067;DHT22;4076;48.076;9.118;2023-03-01T02:38:52;-0.40;99.90
8067;DHT22;4076;48.076;9.118;2023-03-01T02:41:19;-0.30;99.90
8067;DHT22;4076;48.076;9.118;2023-03-01T02:43:45;-0.30;99.90
8067;DHT22;4076;48.076;9.118;2023-03-01T02:46:20;-0.30;99.90
8067;DHT22;4076;48.076;9.118;2023-03-01T02:48:52;-0.30;99.90
8067;DHT22;4076;48.076;9.118;2023-03-01T02:51:43;-0.30;99.90
8067;DHT22;4076;48.076;9.118;2023-03-01T02:54:29;-0.30;99.90
8067;DHT22;4076;48.076;9.118;2023-03-01T02:56:57;-0.30;99.90
8067;DHT22;4076;48.076;9.118;2023-03-01T02:59:28;-0.30;99.90
8067;DHT22;4076;48.076;9.118;2023-03-01T03:01:55;-0.30;99.90
8067;DHT22;4076;48.076;9.118;2023-03-01T03:04:20;-0.30;99.90
8067;DHT22;4076;48.076;9.118;2023-03-01T03:06:48;-0.30;99.90
8067;DHT22;4076;48.076;9.118;2023-03-01T03:09:14;-0.30;99.90
8067;DHT22;4076;48.076;9.118;2023-03-01T03:11:40;-0.30;99.90
8067;DHT22;4076;48.076;9.118;2023-03-01T03:14:12;-0.30;99.90
8067;DHT22;4076;48.076;9.118;2023-03-01T03:16:44;-0.30;99.90
8067;DHT22;4076;48.076;9.118;2023-03-01T03:19:10;-0.40;99.90
8067;DHT22;4076;48.076;9.118;2023-03-01T03:21:35;-0.30;99.90
8067;DHT22;4076;48.076;9.118;2023-03-01T03:24:01;-0.40;99.90
8067;DHT22;4076;48.076;9.118;2023-03-01T03:26:27;-0.30;99.90
8067;DHT22;4076;48.076;9.118;2023-03-01T03:28:52;-0.30;99.90
8067;DHT22;4076;48.076;9.118;2023-03-01T03:31:18;-0.30;99.90
8067;DHT22;4076;48.076;9.118;2023-03-01T03:33:43;-0.30;99.90
8067;DHT22;4076;48.076;9.118;2023-03-01T03:36:09;-0.30;99.90
8067;DHT22;4076;48.076;9.118;2023-03-01T03:38:38;-0.30;99.90
8067;DHT22;4076;48.076;9.118;2023-03-01T03:41:08;-0.30;99.90
8067;DHT22;4076;48.076;9.118;2023-03-01T03:43:35;-0.30;99.90
8067;DHT22;4076;48.076;9.118;2023-03-01T03:46:02;-0.30;99.90
8067;DHT22;4076;48.076;9.118;2023-03-01T03:48:33;-0.30;99.90
8067;DHT22;4076;48.076;9.118;2023-03-01T03:50:59;-0.30;99.90
8067;DHT22;4076;48.076;9.118;2023-03-01T03:53:27;-0.30;99.90
8067;DHT22;4076;48.076;9.118;2023-03-01T03:55:53;-0.30;99.90
8067;DHT22;4076;48.076;9.118;2023-03-01T03:58:21;-0.20;99.90
8067;DHT22;4076;48.076;9.118;2023-03-01T04:00:50;-0.20;99.90
8067;DHT22;4076;48.076;9.118;2023-03-01T04:03:16;-0.20;99.90
8067;DHT22;4076;48.076;9.118;2023-03-01T04:05:44;-0.20;99.90
8067;DHT22;4076;48.076;9.118;2023-03-01T04:08:09;-0.20;99.90
8067;DHT22;4076;48.076;9.118;2023-03-01T04:10:42;-0.20;99.90
8067;DHT22;4076;48.076;9.118;2023-03-01T04:13:13;-0.20;99.90
8067;DHT22;4076;48.076;9.118;2023-03-01T04:15:40;-0.20;99.90
8067;DHT22;4076;48.076;9.118;2023-03-01T04:18:07;-0.20;99.90
8067;DHT22;4076;48.076;9.118;2023-03-01T04:20:35;-0.20;99.90
8067;DHT22;4076;48.076;9.118;2023-03-01T04:23:04;-0.20;99.90
8067;DHT22;4076;48.076;9.118;2023-03-01T04:25:50;-0.30;99.90
8067;DHT22;4076;48.076;9.118;2023-03-01T04:28:27;-0.20;99.90
8067;DHT22;4076;48.076;9.118;2023-03-01T04:30:55;-0.20;99.90
8067;DHT22;4076;48.076;9.118;2023-03-01T04:33:21;-0.20;99.90
8067;DHT22;4076;48.076;9.118;2023-03-01T04:35:48;-0.20;99.90
8067;DHT22;4076;48.076;9.118;2023-03-01T04:38:18;-0.20;99.90
8067;DHT22;4076;48.076;9.118;2023-03-01T04:40:44;-0.10;99.90
8067;DHT22;4076;48.076;9.118;2023-03-01T04:43:11;0.00;99.90
8067;DHT22;4076;48.076;9.118;2023-03-01T04:45:37;0.00;99.90
8067;DHT22;4076;48.076;9.118;2023-03-01T04:48:03;0.00;99.90
8067;DHT22;4076;48.076;9.118;2023-03-01T04:50:29;0.00;99.90
8067;DHT22;4076;48.076;9.118;2023-03-01T04:52:55;0.10;99.90
8067;DHT22;4076;48.076;9.118;2023-03-01T04:55:24;0.10;99.90
8067;DHT22;4076;48.076;9.118;2023-03-01T04:57:51;0.00;99.90
8067;DHT22;4076;48.076;9.118;2023-03-01T05:00:17;0.00;99.90
8067;DHT22;4076;48.076;9.118;2023-03-01T05:07:51;-0.10;99.90
8067;DHT22;4076;48.076;9.118;2023-03-01T05:10:16;-0.10;99.90
8067;DHT22;4076;48.076;9.118;2023-03-01T05:12:42;-0.10;99.90
8067;DHT22;4076;48.076;9.118;2023-03-01T05:15:08;-0.20;99.90
8067;DHT22;4076;48.076;9.118;2023-03-01T05:17:34;-0.20;99.90
8067;DHT22;4076;48.076;9.118;2023-03-01T05:20:00;-0.20;99.90
8067;DHT22;4076;48.076;9.118;2023-03-01T05:22:26;-0.20;99.90
8067;DHT22;4076;48.076;9.118;2023-03-01T05:24:51;-0.20;99.90
8067;DHT22;4076;48.076;9.118;2023-03-01T05:27:19;-0.20;99.90
8067;DHT22;4076;48.076;9.118;2023-03-01T05:29:47;-0.20;99.90
8067;DHT22;4076;48.076;9.118;2023-03-01T05:32:13;-0.20;99.90
8067;DHT22;4076;48.076;9.118;2023-03-01T05:34:41;-0.10;99.90
8067;DHT22;4076;48.076;9.118;2023-03-01T05:37:06;-0.20;99.90
8067;DHT22;4076;48.076;9.118;2023-03-01T05:39:33;-0.20;99.90
8067;DHT22;4076;48.076;9.118;2023-03-01T05:42:00;-0.20;99.90
8067;DHT22;4076;48.076;9.118;2023-03-01T05:44:28;-0.20;99.90
8067;DHT22;4076;48.076;9.118;2023-03-01T05:46:54;-0.20;99.90
8067;DHT22;4076;48.076;9.118;2023-03-01T05:49:19;-0.20;99.90
8067;DHT22;4076;48.076;9.118;2023-03-01T05:51:50;-0.30;99.90
8067;DHT22;4076;48.076;9.118;2023-03-01T05:54:17;-0.30;99.90
8067;DHT22;4076;48.076;9.118;2023-03-01T05:56:44;-0.30;99.90
8067;DHT22;4076;48.076;9.118;2023-03-01T05:59:10;-0.30;99.90
8067;DHT22;4076;48.076;9.118;2023-03-01T06:01:36;-0.30;99.90
8067;DHT22;4076;48.076;9.118;2023-03-01T06:04:03;-0.30;99.90
8067;DHT22;4076;48.076;9.118;2023-03-01T06:06:29;-0.20;99.90
8067;DHT22;4076;48.076;9.118;2023-03-01T06:08:55;-0.20;99.90
8067;DHT22;4076;48.076;9.118;2023-03-01T06:11:21;-0.20;99.90
8067;DHT22;4076;48.076;9.118;2023-03-01T06:13:47;-0.30;99.90
8067;DHT22;4076;48.076;9.118;2023-03-01T06:16:14;-0.30;99.90
8067;DHT22;4076;48.076;9.118;2023-03-01T06:18:40;-0.30;99.90
8067;DHT22;4076;48.076;9.118;2023-03-01T06:21:07;-0.30;99.90
8067;DHT22;4076;48.076;9.118;2023-03-01T06:23:33;-0.30;99.90
8067;DHT22;4076;48.076;9.118;2023-03-01T06:25:59;-0.30;99.90
8067;DHT22;4076;48.076;9.118;2023-03-01T06:28:25;-0.30;99.90
8067;DHT22;4076;48.076;9.118;2023-03-01T06:30:50;-0.30;99.90
8067;DHT22;4076;48.076;9.118;2023-03-01T06:33:17;-0.30;99.90
8067;DHT22;4076;48.076;9.118;2023-03-01T06:35:45;-0.30;99.90
8067;DHT22;4076;48.076;9.118;2023-03-01T06:38:11;-0.30;99.90
8067;DHT22;4076;48.076;9.118;2023-03-01T06:40:40;-0.30;99.90
8067;DHT22;4076;48.076;9.118;2023-03-01T06:43:05;-0.20;99.90
8067;DHT22;4076;48.076;9.118;2023-03-01T06:45:32;-0.20;99.90
8067;DHT22;4076;48.076;9.118;2023-03-01T06:48:05;-0.20;99.90
8067;DHT22;4076;48.076;9.118;2023-03-01T06:50:31;-0.10;99.90
8067;DHT22;4076;48.076;9.118;2023-03-01T06:52:57;-0.20;99.90
8067;DHT22;4076;48.076;9.118;2023-03-01T06:55:23;-0.20;99.90
8067;DHT22;4076;48.076;9.118;2023-03-01T06:57:49;-0.20;99.90
8067;DHT22;4076;48.076;9.118;2023-03-01T07:00:19;-0.20;99.90
8067;DHT22;4076;48.076;9.118;2023-03-01T07:02:44;-0.20;99.90
8067;DHT22;4076;48.076;9.118;2023-03-01T07:05:10;-0.20;99.90
8067;DHT22;4076;48.076;9.118;2023-03-01T07:07:35;-0.10;99.90
8067;DHT22;4076;48.076;9.118;2023-03-01T07:10:01;0.00;99.90
8067;DHT22;4076;48.076;9.118;2023-03-01T07:12:26;-0.10;99.90
8067;DHT22;4076;48.076;9.118;2023-03-01T07:14:52;-0.10;99.90
8067;DHT22;4076;48.076;9.118;2023-03-01T07:17:17;-0.20;99.90
8067;DHT22;4076;48.076;9.118;2023-03-01T07:19:44;-0.10;99.90
8067;DHT22;4076;48.076;9.118;2023-03-01T07:22:10;0.00;99.90
8067;DHT22;4076;48.076;9.118;2023-03-01T07:24:35;0.00;99.90
8067;DHT22;4076;48.076;9.118;2023-03-01T07:27:01;0.00;99.90
8067;DHT22;4076;48.076;9.118;2023-03-01T07:29:27;0.00;99.90
8067;DHT22;4076;48.076;9.118;2023-03-01T07:31:54;0.00;99.90
8067;DHT22;4076;48.076;9.118;2023-03-01T07:34:19;0.00;99.90
8067;DHT22;4076;48.076;9.118;2023-03-01T07:36:45;0.00;99.90
8067;DHT22;4076;48.076;9.118;2023-03-01T07:39:11;0.00;99.90
8067;DHT22;4076;48.076;9.118;2023-03-01T07:41:37;0.00;99.90
8067;DHT22;4076;48.076;9.118;2023-03-01T07:44:03;0.10;99.90
8067;DHT22;4076;48.076;9.118;2023-03-01T07:46:29;0.20;99.90
8067;DHT22;4076;48.076;9.118;2023-03-01T07:48:55;0.20;99.90
8067;DHT22;4076;48.076;9.118;2023-03-01T07:51:20;0.20;99.90
8067;DHT22;4076;48.076;9.118;2023-03-01T07:53:47;0.20;99.90
8067;DHT22;4076;48.076;9.118;2023-03-01T07:56:15;0.20;99.90
8067;DHT22;4076;48.076;9.118;2023-03-01T07:58:44;0.20;99.90
8067;DHT22;4076;48.076;9.118;2023-03-01T08:01:12;0.20;99.90
8067;DHT22;4076;48.076;9.118;2023-03-01T08:03:38;0.20;99.90
8067;DHT22;4076;48.076;9.118;2023-03-01T08:06:05;0.30;99.90
8067;DHT22;4076;48.076;9.118;2023-03-01T08:08:31;0.30;99.90
8067;DHT22;4076;48.076;9.118;2023-03-01T08:10:58;0.30;99.90
8067;DHT22;4076;48.076;9.118;2023-03-01T08:13:24;0.30;99.90
8067;DHT22;4076;48.076;9.118;2023-03-01T08:15:49;0.30;99.90
8067;DHT22;4076;48.076;9.118;2023-03-01T08:18:19;0.30;99.90
8067;DHT22;4076;48.076;9.118;2023-03-01T08:20:45;0.40;99.90
8067;DHT22;4076;48.076;9.118;2023-03-01T08:23:11;0.40;99.90
8067;DHT22;4076;48.076;9.118;2023-03-01T08:25:36;0.40;99.90
8067;DHT22;4076;48.076;9.118;2023-03-01T08:28:02;0.40;99.90
8067;DHT22;4076;48.076;9.118;2023-03-01T08:30:28;0.50;99.90
8067;DHT22;4076;48.076;9.118;2023-03-01T08:32:53;0.60;99.90
8067;DHT22;4076;48.076;9.118;2023-03-01T08:35:19;0.60;99.90
8067;DHT22;4076;48.076;9.118;2023-03-01T08:37:45;0.60;99.90
8067;DHT22;4076;48.076;9.118;2023-03-01T08:40:11;0.70;99.90
8067;DHT22;4076;48.076;9.118;2023-03-01T08:42:41;0.80;99.90
8067;DHT22;4076;48.076;9.118;2023-03-01T08:45:10;0.70;99.90
8067;DHT22;4076;48.076;9.118;2023-03-01T08:47:36;0.80;99.90
8067;DHT22;4076;48.076;9.118;2023-03-01T08:50:02;0.80;99.90
8067;DHT22;4076;48.076;9.118;2023-03-01T08:52:28;0.70;99.90
8067;DHT22;4076;48.076;9.118;2023-03-01T08:54:55;0.60;99.90
8067;DHT22;4076;48.076;9.118;2023-03-01T08:57:22;0.60;99.90
8067;DHT22;4076;48.076;9.118;2023-03-01T08:59:47;0.60;99.90
8067;DHT22;4076;48.076;9.118;2023-03-01T09:02:16;0.60;99.90
8067;DHT22;4076;48.076;9.118;2023-03-01T09:04:42;0.60;99.90
8067;DHT22;4076;48.076;9.118;2023-03-01T09:07:08;0.60;99.90
8067;DHT22;4076;48.076;9.118;2023-03-01T09:09:34;0.70;99.90
8067;DHT22;4076;48.076;9.118;2023-03-01T09:12:00;0.70;99.90
8067;DHT22;4076;48.076;9.118;2023-03-01T09:14:26;0.70;99.90
8067;DHT22;4076;48.076;9.118;2023-03-01T09:16:52;0.80;99.90
8067;DHT22;4076;48.076;9.118;2023-03-01T09:19:17;0.90;99.90
8067;DHT22;4076;48.076;9.118;2023-03-01T09:21:43;1.00;99.90
8067;DHT22;4076;48.076;9.118;2023-03-01T09:24:22;1.10;99.90
8067;DHT22;4076;48.076;9.118;2023-03-01T09:26:49;1.10;99.90
8067;DHT22;4076;48.076;9.118;2023-03-01T09:29:15;1.10;99.90
8067;DHT22;4076;48.076;9.118;2023-03-01T09:31:41;1.10;99.90
8067;DHT22;4076;48.076;9.118;2023-03-01T09:34:07;1.00;99.90
8067;DHT22;4076;48.076;9.118;2023-03-01T09:36:33;0.90;99.90
8067;DHT22;4076;48.076;9.118;2023-03-01T09:38:59;0.90;99.90
8067;DHT22;4076;48.076;9.118;2023-03-01T09:44:36;1.10;99.90
8067;DHT22;4076;48.076;9.118;2023-03-01T09:47:03;1.10;99.90
8067;DHT22;4076;48.076;9.118;2023-03-01T09:49:38;1.10;99.90
8067;DHT22;4076;48.076;9.118;2023-03-01T09:54:58;1.20;99.90
8067;DHT22;4076;48.076;9.118;2023-03-01T09:57:33;1.20;99.90
8067;DHT22;4076;48.076;9.118;2023-03-01T10:02:57;1.20;99.90
8067;DHT22;4076;48.076;9.118;2023-03-01T10:10:54;1.30;98.50
8067;DHT22;4076;48.076;9.118;2023-03-01T10:16:51;1.30;99.90
8067;DHT22;4076;48.076;9.118;2023-03-01T10:19:27;1.40;99.10
8067;DHT22;4076;48.076;9.118;2023-03-01T10:21:54;1.60;98.40
8067;DHT22;4076;48.076;9.118;2023-03-01T10:24:22;1.50;97.80
8067;DHT22;4076;48.076;9.118;2023-03-01T10:26:56;1.40;96.90
8067;DHT22;4076;48.076;9.118;2023-03-01T10:29:31;1.40;97.20
8067;DHT22;4076;48.076;9.118;2023-03-01T10:32:00;1.40;98.20
8067;DHT22;4076;48.076;9.118;2023-03-01T10:34:34;1.40;98.20
8067;DHT22;4076;48.076;9.118;2023-03-01T10:37:12;1.50;98.30
8067;DHT22;4076;48.076;9.118;2023-03-01T10:39:55;1.50;98.40
8067;DHT22;4076;48.076;9.118;2023-03-01T10:42:32;1.50;97.70
8067;DHT22;4076;48.076;9.118;2023-03-01T10:45:36;1.50;97.10
8067;DHT22;4076;48.076;9.118;2023-03-01T10:50:47;1.60;96.70
8067;DHT22;4076;48.076;9.118;2023-03-01T10:53:29;1.60;96.30
8067;DHT22;4076;48.076;9.118;2023-03-01T10:56:06;1.80;97.40
8067;DHT22;4076;48.076;9.118;2023-03-01T10:58:34;1.80;96.80
8067;DHT22;4076;48.076;9.118;2023-03-01T11:01:06;1.80;96.10
8067;DHT22;4076;48.076;9.118;2023-03-01T11:06:36;1.80;95.40
8067;DHT22;4076;48.076;9.118;2023-03-01T11:09:22;1.70;95.50
8067;DHT22;4076;48.076;9.118;2023-03-01T11:11:56;1.70;96.00
8067;DHT22;4076;48.076;9.118;2023-03-01T11:14:24;1.90;95.20
8067;DHT22;4076;48.076;9.118;2023-03-01T11:17:03;1.80;94.70
8067;DHT22;4076;48.076;9.118;2023-03-01T11:19:29;1.80;94.90
8067;DHT22;4076;48.076;9.118;2023-03-01T11:22:02;1.90;94.50
8067;DHT22;4076;48.076;9.118;2023-03-01T11:24:47;2.00;94.00
8067;DHT22;4076;48.076;9.118;2023-03-01T11:29:44;1.80;94.40
8067;DHT22;4076;48.076;9.118;2023-03-01T11:32:13;2.00;95.00
8067;DHT22;4076;48.076;9.118;2023-03-01T11:34:45;2.10;92.80
8067;DHT22;4076;48.076;9.118;2023-03-01T11:37:21;1.90;92.30
8067;DHT22;4076;48.076;9.118;2023-03-01T11:40:03;1.80;92.00
8067;DHT22;4076;48.076;9.118;2023-03-01T11:45:11;1.80;92.80
8067;DHT22;4076;48.076;9.118;2023-03-01T11:47:58;1.80;92.80
8067;DHT22;4076;48.076;9.118;2023-03-01T11:50:39;1.80;92.30
8067;DHT22;4076;48.076;9.118;2023-03-01T11:56:16;2.00;91.80
8067;DHT22;4076;48.076;9.118;2023-03-01T11:59:02;2.00;91.90
8067;DHT22;4076;48.076;9.118;2023-03-01T12:09:38;2.10;91.40
8067;DHT22;4076;48.076;9.118;2023-03-01T12:17:53;2.80;90.70
8067;DHT22;4076;48.076;9.118;2023-03-01T12:20:29;2.80;88.50
8067;DHT22;4076;48.076;9.118;2023-03-01T12:25:55;2.90;88.60
8067;DHT22;4076;48.076;9.118;2023-03-01T12:34:00;3.20;84.60
8067;DHT22;4076;48.076;9.118;2023-03-01T12:50:21;3.50;82.20
8067;DHT22;4076;48.076;9.118;2023-03-01T12:52:57;3.40;79.60
8067;DHT22;4076;48.076;9.118;2023-03-01T12:55:33;3.50;79.40
8067;DHT22;4076;48.076;9.118;2023-03-01T12:58:08;3.50;80.30
8067;DHT22;4076;48.076;9.118;2023-03-01T13:03:25;3.90;79.10
8067;DHT22;4076;48.076;9.118;2023-03-01T13:06:12;4.10;78.40
8067;DHT22;4076;48.076;9.118;2023-03-01T13:08:48;4.20;77.70
8067;DHT22;4076;48.076;9.118;2023-03-01T13:11:21;4.30;77.90
8067;DHT22;4076;48.076;9.118;2023-03-01T13:13:47;4.30;76.10
8067;DHT22;4076;48.076;9.118;2023-03-01T13:19:13;4.10;74.30
8067;DHT22;4076;48.076;9.118;2023-03-01T13:21:41;4.10;72.80
8067;DHT22;4076;48.076;9.118;2023-03-01T13:24:40;4.00;72.90
8067;DHT22;4076;48.076;9.118;2023-03-01T13:29:51;4.20;73.80
8067;DHT22;4076;48.076;9.118;2023-03-01T13:37:35;4.10;70.30
8067;DHT22;4076;48.076;9.118;2023-03-01T13:40:05;3.90;71.30
8067;DHT22;4076;48.076;9.118;2023-03-01T13:42:48;3.90;72.10
8067;DHT22;4076;48.076;9.118;2023-03-01T13:48:10;4.10;70.90
8067;DHT22;4076;48.076;9.118;2023-03-01T13:50:45;4.00;70.50
8067;DHT22;4076;48.076;9.118;2023-03-01T13:53:16;3.90;71.50
8067;DHT22;4076;48.076;9.118;2023-03-01T13:55:45;3.90;72.60
8067;DHT22;4076;48.076;9.118;2023-03-01T13:58:26;4.10;72.00
8067;DHT22;4076;48.076;9.118;2023-03-01T14:01:05;4.20;71.90
8067;DHT22;4076;48.076;9.118;2023-03-01T14:03:33;4.20;70.20
8067;DHT22;4076;48.076;9.118;2023-03-01T14:06:13;4.00;70.50
8067;DHT22;4076;48.076;9.118;2023-03-01T14:08:41;4.00;73.40
8067;DHT22;4076;48.076;9.118;2023-03-01T14:11:33;4.10;75.10
8067;DHT22;4076;48.076;9.118;2023-03-01T14:14:22;4.20;72.60
8067;DHT22;4076;48.076;9.118;2023-03-01T14:17:00;4.20;72.60
8067;DHT22;4076;48.076;9.118;2023-03-01T14:19:31;4.20;72.30
8067;DHT22;4076;48.076;9.118;2023-03-01T14:22:20;4.20;72.10
8067;DHT22;4076;48.076;9.118;2023-03-01T14:24:58;4.30;72.90
8067;DHT22;4076;48.076;9.118;2023-03-01T14:27:33;4.30;72.80
8067;DHT22;4076;48.076;9.118;2023-03-01T14:30:02;4.50;70.60
8067;DHT22;4076;48.076;9.118;2023-03-01T14:32:30;4.40;70.70
8067;DHT22;4076;48.076;9.118;2023-03-01T14:34:57;4.50;70.60
8067;DHT22;4076;48.076;9.118;2023-03-01T14:37:27;4.40;70.70
8067;DHT22;4076;48.076;9.118;2023-03-01T14:39:54;4.50;71.30
8067;DHT22;4076;48.076;9.118;2023-03-01T14:42:22;4.50;71.90
8067;DHT22;4076;48.076;9.118;2023-03-01T14:44:50;4.60;72.30
8067;DHT22;4076;48.076;9.118;2023-03-01T14:47:36;4.80;71.30
8067;DHT22;4076;48.076;9.118;2023-03-01T14:50:26;4.90;71.30
8067;DHT22;4076;48.076;9.118;2023-03-01T14:52:57;5.00;69.00
8067;DHT22;4076;48.076;9.118;2023-03-01T14:55:32;5.00;68.90
8067;DHT22;4076;48.076;9.118;2023-03-01T14:58:02;5.10;69.40
8067;DHT22;4076;48.076;9.118;2023-03-01T15:00:30;5.10;68.10
8067;DHT22;4076;48.076;9.118;2023-03-01T15:03:00;5.00;68.40
8067;DHT22;4076;48.076;9.118;2023-03-01T15:05:32;4.90;67.60
8067;DHT22;4076;48.076;9.118;2023-03-01T15:07:59;4.70;67.70
8067;DHT22;4076;48.076;9.118;2023-03-01T15:10:28;4.50;68.80
8067;DHT22;4076;48.076;9.118;2023-03-01T15:12:55;4.50;70.50
8067;DHT22;4076;48.076;9.118;2023-03-01T15:15:35;4.50;70.90
8067;DHT22;4076;48.076;9.118;2023-03-01T15:18:14;4.50;71.20
8067;DHT22;4076;48.076;9.118;2023-03-01T15:20:40;4.60;70.20
8067;DHT22;4076;48.076;9.118;2023-03-01T15:23:26;4.60;70.40
8067;DHT22;4076;48.076;9.118;2023-03-01T15:25:54;4.60;70.30
8067;DHT22;4076;48.076;9.118;2023-03-01T15:28:25;4.60;70.50
8067;DHT22;4076;48.076;9.118;2023-03-01T15:31:18;4.60;69.10
8067;DHT22;4076;48.076;9.118;2023-03-01T15:33:40;4.60;69.20
8067;DHT22;4076;48.076;9.118;2023-03-01T15:36:46;4.50;70.10
8067;DHT22;4076;48.076;9.118;2023-03-01T15:39:34;4.50;70.50
8067;DHT22;4076;48.076;9.118;2023-03-01T15:42:07;4.60;69.80
8067;DHT22;4076;48.076;9.118;2023-03-01T15:44:38;4.50;70.10
8067;DHT22;4076;48.076;9.118;2023-03-01T15:47:22;4.60;69.50
8067;DHT22;4076;48.076;9.118;2023-03-01T15:49:51;4.60;69.60
8067;DHT22;4076;48.076;9.118;2023-03-01T15:52:29;4.60;69.80
8067;DHT22;4076;48.076;9.118;2023-03-01T15:55:02;4.50;70.10
8067;DHT22;4076;48.076;9.118;2023-03-01T15:57:28;4.50;69.30
8067;DHT22;4076;48.076;9.118;2023-03-01T15:59:54;4.40;69.80
8067;DHT22;4076;48.076;9.118;2023-03-01T16:02:19;4.40;69.70
8067;DHT22;4076;48.076;9.118;2023-03-01T16:04:46;4.40;70.30
8067;DHT22;4076;48.076;9.118;2023-03-01T16:07:14;4.50;70.50
8067;DHT22;4076;48.076;9.118;2023-03-01T16:09:39;4.50;68.80
8067;DHT22;4076;48.076;9.118;2023-03-01T16:12:08;4.50;68.20
8067;DHT22;4076;48.076;9.118;2023-03-01T16:14:38;4.40;68.70
8067;DHT22;4076;48.076;9.118;2023-03-01T16:17:03;4.30;69.10
8067;DHT22;4076;48.076;9.118;2023-03-01T16:19:29;4.20;69.00
8067;DHT22;4076;48.076;9.118;2023-03-01T16:21:54;4.20;69.80
8067;DHT22;4076;48.076;9.118;2023-03-01T16:24:20;4.10;70.00
8067;DHT22;4076;48.076;9.118;2023-03-01T16:26:45;4.00;70.20
8067;DHT22;4076;48.076;9.118;2023-03-01T16:29:11;4.00;70.50
8067;DHT22;4076;48.076;9.118;2023-03-01T16:31:37;3.90;70.80
8067;DHT22;4076;48.076;9.118;2023-03-01T16:34:02;3.90;71.00
8067;DHT22;4076;48.076;9.118;2023-03-01T16:36:28;3.90;71.00
8067;DHT22;4076;48.076;9.118;2023-03-01T16:38:54;3.80;71.30
8067;DHT22;4076;48.076;9.118;2023-03-01T16:41:22;3.80;71.70
8067;DHT22;4076;48.076;9.118;2023-03-01T16:43:48;3.80;72.70
8067;DHT22;4076;48.076;9.118;2023-03-01T16:46:17;3.80;73.30
8067;DHT22;4076;48.076;9.118;2023-03-01T16:48:43;3.80;73.40
8067;DHT22;4076;48.076;9.118;2023-03-01T16:51:08;3.70;73.30
8067;DHT22;4076;48.076;9.118;2023-03-01T16:53:35;3.70;73.10
8067;DHT22;4076;48.076;9.118;2023-03-01T16:56:02;3.70;73.20
8067;DHT22;4076;48.076;9.118;2023-03-01T16:58:29;3.70;73.60
8067;DHT22;4076;48.076;9.118;2023-03-01T17:00:55;3.70;74.20
8067;DHT22;4076;48.076;9.118;2023-03-01T17:03:22;3.70;74.50
8067;DHT22;4076;48.076;9.118;2023-03-01T17:05:48;3.60;74.70
8067;DHT22;4076;48.076;9.118;2023-03-01T17:08:15;3.60;74.00
8067;DHT22;4076;48.076;9.118;2023-03-01T17:10:41;3.60;74.00
8067;DHT22;4076;48.076;9.118;2023-03-01T17:13:10;3.60;74.70
8067;DHT22;4076;48.076;9.118;2023-03-01T17:15:39;3.60;74.80
8067;DHT22;4076;48.076;9.118;2023-03-01T17:18:05;3.60;74.40
8067;DHT22;4076;48.076;9.118;2023-03-01T17:20:31;3.60;73.80
8067;DHT22;4076;48.076;9.118;2023-03-01T17:22:56;3.60;75.70
8067;DHT22;4076;48.076;9.118;2023-03-01T17:25:23;3.50;75.80
8067;DHT22;4076;48.076;9.118;2023-03-01T17:27:48;3.60;76.10
8067;DHT22;4076;48.076;9.118;2023-03-01T17:30:15;3.50;75.80
8067;DHT22;4076;48.076;9.118;2023-03-01T17:32:41;3.60;75.50
8067;DHT22;4076;48.076;9.118;2023-03-01T17:35:07;3.60;75.30
8067;DHT22;4076;48.076;9.118;2023-03-01T17:37:33;3.60;75.50
8067;DHT22;4076;48.076;9.118;2023-03-01T17:39:59;3.60;75.50
8067;DHT22;4076;48.076;9.118;2023-03-01T17:42:25;3.60;75.50
8067;DHT22;4076;48.076;9.118;2023-03-01T17:44:50;3.60;75.50
8067;DHT22;4076;48.076;9.118;2023-03-01T17:47:16;3.60;75.70
8067;DHT22;4076;48.076;9.118;2023-03-01T17:49:41;3.60;76.10
8067;DHT22;4076;48.076;9.118;2023-03-01T17:52:07;3.60;75.90
8067;DHT22;4076;48.076;9.118;2023-03-01T17:54:32;3.50;76.20
8067;DHT22;4076;48.076;9.118;2023-03-01T17:56:58;3.50;76.20
8067;DHT22;4076;48.076;9.118;2023-03-01T17:59:24;3.50;76.00
8067;DHT22;4076;48.076;9.118;2023-03-01T18:01:56;3.50;76.30
8067;DHT22;4076;48.076;9.118;2023-03-01T18:04:22;3.50;76.60
8067;DHT22;4076;48.076;9.118;2023-03-01T18:06:48;3.50;77.30